sensor_id;sensor_type;location;lat;lon;timestamp;pressure;altitude;pressure_sealevel;temperature;humidity
54172;BME280;40076;52.354;4.970;2022-11-11T00:01:26;102709.09;;;12.32;100.00
54172;BME280;40076;52.354;4.970;2022-11-11T00:03:55;102711.81;;;12.32;100.00
54172;BME280;40076;52.354;4.970;2022-11-11T00:06:21;102719.13;;;12.32;100.00
54172;BME280;40076;52.354;4.970;2022-11-11T00:08:47;102727.00;;;12.28;100.00
54172;BME280;40076;52.354;4.970;2022-11-11T00:11:14;102713.44;;;12.28;100.00
54172;BME280;40076;52.354;4.970;2022-11-11T00:13:41;102718.38;;;12.26;100.00
54172;BME280;40076;52.354;4.970;2022-11-11T00:16:18;102728.44;;;12.21;100.00
54172;BME280;40076;52.354;4.970;2022-11-11T00:18:44;102724.63;;;12.22;100.00
54172;BME280;40076;52.354;4.970;2022-11-11T00:21:29;102724.41;;;12.18;100.00
54172;BME280;40076;52.354;4.970;2022-11-11T00:24:25;102722.81;;;12.12;100.00
54172;BME280;40076;52.354;4.970;2022-11-11T00:27:10;102717.16;;;12.09;100.00
54172;BME280;40076;52.354;4.970;2022-11-11T00:29:37;102718.81;;;12.05;100.00
54172;BME280;40076;52.354;4.970;2022-11-11T00:32:08;102715.03;;;12.01;100.00
54172;BME280;40076;52.354;4.970;2022-11-11T00:34:53;102716.94;;;12.00;100.00
54172;BME280;40076;52.354;4.970;2022-11-11T00:37:40;102715.38;;;11.94;100.00
54172;BME280;40076;52.354;4.970;2022-11-11T00:40:06;102716.22;;;11.89;100.00
54172;BME280;40076;52.354;4.970;2022-11-11T00:42:32;102710.28;;;11.87;100.00
54172;BME280;40076;52.354;4.970;2022-11-11T00:44:57;102698.91;;;11.85;100.00
54172;BME280;40076;52.354;4.970;2022-11-11T00:47:23;102694.56;;;11.84;100.00
54172;BME280;40076;52.354;4.970;2022-11-11T00:50:12;102697.03;;;11.81;100.00
54172;BME280;40076;52.354;4.970;2022-11-11T00:52:56;102694.88;;;11.78;100.00
54172;BME280;40076;52.354;4.970;2022-11-11T00:55:24;102703.59;;;11.75;100.00
54172;BME280;40076;52.354;4.970;2022-11-11T00:57:49;102703.59;;;11.75;100.00
54172;BME280;40076;52.354;4.970;2022-11-11T01:00:14;102704.94;;;11.72;100.00
54172;BME280;40076;52.354;4.970;2022-11-11T01:02:40;102706.00;;;11.71;100.00
54172;BME280;40076;52.354;4.970;2022-11-11T01:05:05;102711.69;;;11.70;100.00
54172;BME280;40076;52.354;4.970;2022-11-11T01:07:31;102703.34;;;11.66;100.00
54172;BME280;40076;52.354;4.970;2022-11-11T01:09:56;102712.28;;;11.67;100.00
54172;BME280;40076;52.354;4.970;2022-11-11T01:12:21;102717.16;;;11.65;100.00
54172;BME280;40076;52.354;4.970;2022-11-11T01:14:46;102727.19;;;11.64;100.00
54172;BME280;40076;52.354;4.970;2022-11-11T01:17:12;102724.75;;;11.63;100.00
54172;BME280;40076;52.354;4.970;2022-11-11T01:19:37;102738.03;;;11.59;100.00
54172;BME280;40076;52.354;4.970;2022-11-11T01:22:02;102746.16;;;11.59;100.00
54172;BME280;40076;52.354;4.970;2022-11-11T01:24:28;102745.63;;;11.57;100.00
54172;BME280;40076;52.354;4.970;2022-11-11T01:26:53;102749.16;;;11.57;100.00
54172;BME280;40076;52.354;4.970;2022-11-11T01:29:18;102746.72;;;11.56;100.00
54172;BME280;40076;52.354;4.970;2022-11-11T01:31:44;102740.75;;;11.54;100.00
54172;BME280;40076;52.354;4.970;2022-11-11T01:34:09;102739.72;;;11.50;100.00
54172;BME280;40076;52.354;4.970;2022-11-11T01:36:35;102741.59;;;11.49;100.00
54172;BME280;40076;52.354;4.970;2022-11-11T01:39:00;102732.66;;;11.49;100.00
54172;BME280;40076;52.354;4.970;2022-11-11T01:41:34;102729.69;;;11.45;100.00
54172;BME280;40076;52.354;4.970;2022-11-11T01:59:46;102713.25;;;11.32;100.00
54172;BME280;40076;52.354;4.970;2022-11-11T02:02:23;102704.91;;;11.28;100.00
54172;BME280;40076;52.354;4.970;2022-11-11T02:04:50;102701.09;;;11.29;100.00
54172;BME280;40076;52.354;4.970;2022-11-11T02:07:35;102704.09;;;11.28;100.00
54172;BME280;40076;52.354;4.970;2022-11-11T02:10:04;102703.81;;;11.24;100.00
54172;BME280;40076;52.354;4.970;2022-11-11T02:12:31;102697.88;;;11.22;100.00
54172;BME280;40076;52.354;4.970;2022-11-11T02:15:15;102701.38;;;11.22;100.00
54172;BME280;40076;52.354;4.970;2022-11-11T02:17:41;102701.69;;;11.21;100.00
54172;BME280;40076;52.354;4.970;2022-11-11T02:20:07;102687.34;;;11.20;100.00
54172;BME280;40076;52.354;4.970;2022-11-11T02:22:48;102699.25;;;11.19;100.00
54172;BME280;40076;52.354;4.970;2022-11-11T02:25:18;102695.19;;;11.17;100.00
54172;BME280;40076;52.354;4.970;2022-11-11T02:27:49;102693.56;;;11.16;100.00
54172;BME280;40076;52.354;4.970;2022-11-11T02:30:19;102705.22;;;11.16;100.00
54172;BME280;40076;52.354;4.970;2022-11-11T02:32:47;102699.00;;;11.16;100.00
54172;BME280;40076;52.354;4.970;2022-11-11T02:35:18;102708.75;;;11.12;100.00
54172;BME280;40076;52.354;4.970;2022-11-11T02:37:45;102704.66;;;11.14;100.00
54172;BME280;40076;52.354;4.970;2022-11-11T02:43:32;102718.22;;;11.09;100.00
54172;BME280;40076;52.354;4.970;2022-11-11T02:45:59;102723.38;;;11.11;100.00
54172;BME280;40076;52.354;4.970;2022-11-11T02:48:25;102728.78;;;11.11;100.00
54172;BME280;40076;52.354;4.970;2022-11-11T02:50:50;102730.69;;;11.10;100.00
54172;BME280;40076;52.354;4.970;2022-11-11T02:53:16;102731.47;;;11.11;100.00
54172;BME280;40076;52.354;4.970;2022-11-11T02:55:41;102740.69;;;11.10;100.00
54172;BME280;40076;52.354;4.970;2022-11-11T02:58:07;102743.66;;;11.08;100.00
54172;BME280;40076;52.354;4.970;2022-11-11T03:00:32;102746.38;;;11.08;100.00
54172;BME280;40076;52.354;4.970;2022-11-11T03:02:58;102750.16;;;11.07;100.00
54172;BME280;40076;52.354;4.970;2022-11-11T03:05:23;102756.38;;;11.08;100.00
54172;BME280;40076;52.354;4.970;2022-11-11T03:07:49;102759.06;;;11.08;100.00
54172;BME280;40076;52.354;4.970;2022-11-11T03:10:14;102765.56;;;11.07;100.00
54172;BME280;40076;52.354;4.970;2022-11-11T03:12:40;102765.56;;;11.07;100.00
54172;BME280;40076;52.354;4.970;2022-11-11T03:15:05;102771.78;;;11.07;100.00
54172;BME280;40076;52.354;4.970;2022-11-11T03:17:31;102770.44;;;11.10;100.00
54172;BME280;40076;52.354;4.970;2022-11-11T03:20:18;102776.66;;;11.10;100.00
54172;BME280;40076;52.354;4.970;2022-11-11T03:23:03;102772.06;;;11.11;100.00
54172;BME280;40076;52.354;4.970;2022-11-11T03:25:29;102774.78;;;11.11;100.00
54172;BME280;40076;52.354;4.970;2022-11-11T03:28:06;102769.34;;;11.11;100.00
54172;BME280;40076;52.354;4.970;2022-11-11T03:30:32;102770.19;;;11.11;100.00
54172;BME280;40076;52.354;4.970;2022-11-11T03:33:00;102768.28;;;11.12;100.00
54172;BME280;40076;52.354;4.970;2022-11-11T03:35:26;102759.09;;;11.13;100.00
54172;BME280;40076;52.354;4.970;2022-11-11T03:37:52;102766.09;;;11.14;100.00
54172;BME280;40076;52.354;4.970;2022-11-11T03:40:36;102763.94;;;11.11;100.00
54172;BME280;40076;52.354;4.970;2022-11-11T03:43:01;102762.88;;;11.12;100.00
54172;BME280;40076;52.354;4.970;2022-11-11T03:45:28;102760.44;;;11.10;100.00
54172;BME280;40076;52.354;4.970;2022-11-11T03:47:53;102759.63;;;11.10;100.00
54172;BME280;40076;52.354;4.970;2022-11-11T03:50:20;102765.31;;;11.08;100.00
54172;BME280;40076;52.354;4.970;2022-11-11T03:52:45;102773.97;;;11.10;100.00
54172;BME280;40076;52.354;4.970;2022-11-11T03:55:11;102758.25;;;11.07;100.00
54172;BME280;40076;52.354;4.970;2022-11-11T03:57:45;102758.25;;;11.07;100.00
54172;BME280;40076;52.354;4.970;2022-11-11T04:00:12;102757.44;;;11.07;100.00
54172;BME280;40076;52.354;4.970;2022-11-11T04:02:38;102749.34;;;11.07;100.00
54172;BME280;40076;52.354;4.970;2022-11-11T04:05:21;102742.59;;;11.04;100.00
54172;BME280;40076;52.354;4.970;2022-11-11T04:08:14;102729.34;;;11.03;100.00
54172;BME280;40076;52.354;4.970;2022-11-11T04:11:02;102728.81;;;11.01;100.00
54172;BME280;40076;52.354;4.970;2022-11-11T04:13:30;102719.59;;;11.02;100.00
54172;BME280;40076;52.354;4.970;2022-11-11T04:16:15;102722.31;;;11.02;100.00
54172;BME280;40076;52.354;4.970;2022-11-11T04:18:40;102716.09;;;11.01;100.00
54172;BME280;40076;52.354;4.970;2022-11-11T04:21:24;102724.78;;;10.98;100.00
54172;BME280;40076;52.354;4.970;2022-11-11T04:24:10;102714.22;;;10.97;100.00
54172;BME280;40076;52.354;4.970;2022-11-11T04:26:56;102720.44;;;10.97;100.00
54172;BME280;40076;52.354;4.970;2022-11-11T04:29:22;102722.59;;;10.95;100.00
54172;BME280;40076;52.354;4.970;2022-11-11T04:34:38;102736.94;;;10.96;100.00
54172;BME280;40076;52.354;4.970;2022-11-11T04:37:06;102738.03;;;10.95;100.00
54172;BME280;40076;52.354;4.970;2022-11-11T04:39:31;102733.16;;;10.97;100.00
54172;BME280;40076;52.354;4.970;2022-11-11T04:42:15;102740.19;;;10.98;100.00
54172;BME280;40076;52.354;4.970;2022-11-11T04:44:40;102743.97;;;10.97;100.00
54172;BME280;40076;52.354;4.970;2022-11-11T04:47:24;102743.72;;;10.98;100.00
54172;BME280;40076;52.354;4.970;2022-11-11T04:49:50;102737.50;;;10.98;100.00
54172;BME280;40076;52.354;4.970;2022-11-11T04:52:15;102733.16;;;10.97;100.00
54172;BME280;40076;52.354;4.970;2022-11-11T04:54:57;102737.75;;;10.96;100.00
54172;BME280;40076;52.354;4.970;2022-11-11T04:57:43;102742.09;;;10.97;100.00
54172;BME280;40076;52.354;4.970;2022-11-11T05:00:14;102739.06;;;10.99;100.00
54172;BME280;40076;52.354;4.970;2022-11-11T05:02:40;102751.81;;;10.98;100.00
54172;BME280;40076;52.354;4.970;2022-11-11T05:05:24;102749.13;;;10.98;100.00
54172;BME280;40076;52.354;4.970;2022-11-11T05:07:50;102751.81;;;10.98;100.00
54172;BME280;40076;52.354;4.970;2022-11-11T05:10:34;102760.19;;;10.97;100.00
54172;BME280;40076;52.354;4.970;2022-11-11T05:13:00;102754.78;;;10.97;100.00
54172;BME280;40076;52.354;4.970;2022-11-11T05:15:44;102749.13;;;10.98;100.00
54172;BME280;40076;52.354;4.970;2022-11-11T05:18:28;102746.41;;;10.98;100.00
54172;BME280;40076;52.354;4.970;2022-11-11T05:21:15;102741.28;;;10.97;100.00
54172;BME280;40076;52.354;4.970;2022-11-11T05:23:45;102734.25;;;10.96;100.00
54172;BME280;40076;52.354;4.970;2022-11-11T05:26:29;102743.97;;;10.97;100.00
54172;BME280;40076;52.354;4.970;2022-11-11T05:28:55;102741.28;;;10.97;100.00
54172;BME280;40076;52.354;4.970;2022-11-11T05:31:20;102742.91;;;10.98;100.00
54172;BME280;40076;52.354;4.970;2022-11-11T05:33:46;102744.78;;;10.97;100.00
54172;BME280;40076;52.354;4.970;2022-11-11T05:36:11;102754.53;;;10.98;100.00
54172;BME280;40076;52.354;4.970;2022-11-11T05:38:36;102757.22;;;10.98;100.00
54172;BME280;40076;52.354;4.970;2022-11-11T05:41:01;102752.91;;;10.97;100.00
54172;BME280;40076;52.354;4.970;2022-11-11T05:43:27;102749.38;;;10.97;100.00
54172;BME280;40076;52.354;4.970;2022-11-11T05:45:52;102761.53;;;10.99;100.00
54172;BME280;40076;52.354;4.970;2022-11-11T05:48:17;102760.72;;;10.99;100.00
54172;BME280;40076;52.354;4.970;2022-11-11T05:50:43;102760.72;;;10.99;100.00
54172;BME280;40076;52.354;4.970;2022-11-11T05:53:08;102765.06;;;11.00;100.00
54172;BME280;40076;52.354;4.970;2022-11-11T05:55:33;102773.97;;;11.00;100.00
54172;BME280;40076;52.354;4.970;2022-11-11T05:57:59;102765.84;;;11.00;100.00
54172;BME280;40076;52.354;4.970;2022-11-11T06:00:27;102773.16;;;11.00;100.00
54172;BME280;40076;52.354;4.970;2022-11-11T06:02:53;102775.88;;;11.00;100.00
54172;BME280;40076;52.354;4.970;2022-11-11T06:05:18;102774.25;;;10.99;100.00
54172;BME280;40076;52.354;4.970;2022-11-11T06:07:44;102780.47;;;10.99;100.00
54172;BME280;40076;52.354;4.970;2022-11-11T06:10:09;102778.56;;;11.00;100.00
54172;BME280;40076;52.354;4.970;2022-11-11T06:12:53;102783.16;;;10.99;100.00
54172;BME280;40076;52.354;4.970;2022-11-11T06:15:37;102778.56;;;11.00;100.00
54172;BME280;40076;52.354;4.970;2022-11-11T06:18:04;102782.66;;;10.97;100.00
54172;BME280;40076;52.354;4.970;2022-11-11T06:20:30;102790.78;;;10.97;100.00
54172;BME280;40076;52.354;4.970;2022-11-11T06:22:56;102785.38;;;10.97;100.00
54172;BME280;40076;52.354;4.970;2022-11-11T06:25:23;102787.25;;;10.97;100.00
54172;BME280;40076;52.354;4.970;2022-11-11T06:28:08;102788.06;;;10.97;100.00
54172;BME280;40076;52.354;4.970;2022-11-11T06:30:33;102797.25;;;10.96;100.00
54172;BME280;40076;52.354;4.970;2022-11-11T06:32:58;102795.63;;;10.95;100.00
54172;BME280;40076;52.354;4.970;2022-11-11T06:35:24;102802.66;;;10.96;100.00
54172;BME280;40076;52.354;4.970;2022-11-11T06:37:49;102801.03;;;10.95;100.00
54172;BME280;40076;52.354;4.970;2022-11-11T06:40:14;102802.94;;;10.95;100.00
54172;BME280;40076;52.354;4.970;2022-11-11T06:42:39;102804.03;;;10.94;100.00
54172;BME280;40076;52.354;4.970;2022-11-11T06:45:05;102804.03;;;10.94;100.00
54172;BME280;40076;52.354;4.970;2022-11-11T06:47:31;102810.50;;;10.93;100.00
54172;BME280;40076;52.354;4.970;2022-11-11T06:49:56;102803.47;;;10.92;100.00
54172;BME280;40076;52.354;4.970;2022-11-11T06:52:21;102810.00;;;10.91;100.00
54172;BME280;40076;52.354;4.970;2022-11-11T06:54:46;102809.19;;;10.90;100.00
54172;BME280;40076;52.354;4.970;2022-11-11T06:57:12;102815.41;;;10.91;100.00
54172;BME280;40076;52.354;4.970;2022-11-11T06:59:37;102808.06;;;10.91;100.00
54172;BME280;40076;52.354;4.970;2022-11-11T07:02:02;102802.16;;;10.89;100.00
54172;BME280;40076;52.354;4.970;2022-11-11T07:04:27;102804.31;;;10.87;100.00
54172;BME280;40076;52.354;4.970;2022-11-11T07:06:53;102802.16;;;10.89;100.00
54172;BME280;40076;52.354;4.970;2022-11-11T07:09:18;102807.00;;;10.87;100.00
54172;BME280;40076;52.354;4.970;2022-11-11T07:11:43;102807.81;;;10.88;100.00
54172;BME280;40076;52.354;4.970;2022-11-11T07:14:09;102802.97;;;10.90;100.00
54172;BME280;40076;52.354;4.970;2022-11-11T07:16:34;102810.25;;;10.89;100.00
54172;BME280;40076;52.354;4.970;2022-11-11T07:18:59;102803.22;;;10.88;100.00
54172;BME280;40076;52.354;4.970;2022-11-11T07:21:24;102808.38;;;10.90;100.00
54172;BME280;40076;52.354;4.970;2022-11-11T07:23:50;102799.44;;;10.89;100.00
54172;BME280;40076;52.354;4.970;2022-11-11T07:26:15;102806.47;;;10.90;100.00
54172;BME280;40076;52.354;4.970;2022-11-11T07:28:40;102806.75;;;10.89;100.00
54172;BME280;40076;52.354;4.970;2022-11-11T07:31:05;102809.44;;;10.89;100.00
54172;BME280;40076;52.354;4.970;2022-11-11T07:33:31;102809.72;;;10.87;100.00
54172;BME280;40076;52.354;4.970;2022-11-11T07:35:56;102804.56;;;10.86;100.00
54172;BME280;40076;52.354;4.970;2022-11-11T07:38:21;102812.69;;;10.86;100.00
54172;BME280;40076;52.354;4.970;2022-11-11T07:40:47;102816.47;;;10.84;100.00
54172;BME280;40076;52.354;4.970;2022-11-11T07:43:12;102826.47;;;10.84;100.00
54172;BME280;40076;52.354;4.970;2022-11-11T07:45:37;102841.09;;;10.83;100.00
54172;BME280;40076;52.354;4.970;2022-11-11T07:48:03;102840.28;;;10.82;100.00
54172;BME280;40076;52.354;4.970;2022-11-11T07:50:28;102843.00;;;10.82;100.00
54172;BME280;40076;52.354;4.970;2022-11-11T07:52:53;102851.09;;;10.82;100.00
54172;BME280;40076;52.354;4.970;2022-11-11T07:55:19;102847.28;;;10.83;100.00
54172;BME280;40076;52.354;4.970;2022-11-11T07:57:45;102848.41;;;10.82;100.00
54172;BME280;40076;52.354;4.970;2022-11-11T08:00:11;102857.31;;;10.83;100.00
54172;BME280;40076;52.354;4.970;2022-11-11T08:02:36;102850.28;;;10.82;100.00
54172;BME280;40076;52.354;4.970;2022-11-11T08:05:02;102853.81;;;10.82;100.00
54172;BME280;40076;52.354;4.970;2022-11-11T08:07:27;102861.38;;;10.80;100.00
54172;BME280;40076;52.354;4.970;2022-11-11T08:09:52;102862.44;;;10.79;100.00
54172;BME280;40076;52.354;4.970;2022-11-11T08:12:18;102864.59;;;10.77;100.00
54172;BME280;40076;52.354;4.970;2022-11-11T08:15:03;102862.97;;;10.76;100.00
54172;BME280;40076;52.354;4.970;2022-11-11T08:17:28;102865.16;;;10.74;100.00
54172;BME280;40076;52.354;4.970;2022-11-11T08:19:54;102880.56;;;10.74;100.00
54172;BME280;40076;52.354;4.970;2022-11-11T08:22:19;102870.03;;;10.72;100.00
54172;BME280;40076;52.354;4.970;2022-11-11T08:24:44;102879.22;;;10.71;100.00
54172;BME280;40076;52.354;4.970;2022-11-11T08:27:10;102881.09;;;10.71;100.00
54172;BME280;40076;52.354;4.970;2022-11-11T08:29:35;102890.84;;;10.72;100.00
54172;BME280;40076;52.354;4.970;2022-11-11T08:32:00;102887.31;;;10.71;100.00
54172;BME280;40076;52.354;4.970;2022-11-11T08:34:26;102885.16;;;10.73;100.00
54172;BME280;40076;52.354;4.970;2022-11-11T08:36:51;102888.13;;;10.72;100.00
54172;BME280;40076;52.354;4.970;2022-11-11T08:39:16;102891.38;;;10.69;100.00
54172;BME280;40076;52.354;4.970;2022-11-11T08:41:42;102893.25;;;10.68;100.00
54172;BME280;40076;52.354;4.970;2022-11-11T08:44:08;102895.19;;;10.68;100.00
54172;BME280;40076;52.354;4.970;2022-11-11T08:46:33;102906.50;;;10.70;100.00
54172;BME280;40076;52.354;4.970;2022-11-11T08:48:59;102914.91;;;10.73;100.00
54172;BME280;40076;52.354;4.970;2022-11-11T08:51:24;102906.81;;;10.73;100.00
54172;BME280;40076;52.354;4.970;2022-11-11T08:53:49;102904.66;;;10.75;100.00
54172;BME280;40076;52.354;4.970;2022-11-11T08:56:14;102914.34;;;10.76;100.00
54172;BME280;40076;52.354;4.970;2022-11-11T08:58:40;102918.69;;;10.77;100.00
54172;BME280;40076;52.354;4.970;2022-11-11T09:01:10;102925.72;;;10.78;100.00
54172;BME280;40076;52.354;4.970;2022-11-11T09:03:35;102923.28;;;10.77;100.00
54172;BME280;40076;52.354;4.970;2022-11-11T09:06:00;102931.13;;;10.78;100.00
54172;BME280;40076;52.354;4.970;2022-11-11T09:08:26;102933.56;;;10.80;100.00
54172;BME280;40076;52.354;4.970;2022-11-11T09:10:51;102936.53;;;10.78;100.00
54172;BME280;40076;52.354;4.970;2022-11-11T09:13:16;102948.97;;;10.79;100.00
54172;BME280;40076;52.354;4.970;2022-11-11T09:15:42;102940.88;;;10.79;100.00
54172;BME280;40076;52.354;4.970;2022-11-11T09:18:07;102947.34;;;10.78;100.00
54172;BME280;40076;52.354;4.970;2022-11-11T09:20:34;102948.19;;;10.79;100.00
54172;BME280;40076;52.354;4.970;2022-11-11T09:22:59;102959.53;;;10.81;100.00
54172;BME280;40076;52.354;4.970;2022-11-11T09:25:25;102958.19;;;10.78;100.00
54172;BME280;40076;52.354;4.970;2022-11-11T09:27:59;102958.44;;;10.77;100.00
54172;BME280;40076;52.354;4.970;2022-11-11T09:30:25;102958.19;;;10.78;100.00
54172;BME280;40076;52.354;4.970;2022-11-11T09:32:51;102963.59;;;10.78;100.00
54172;BME280;40076;52.354;4.970;2022-11-11T09:35:17;102963.03;;;10.76;100.00
54172;BME280;40076;52.354;4.970;2022-11-11T09:37:52;102969.00;;;10.78;100.00
54172;BME280;40076;52.354;4.970;2022-11-11T09:40:20;102964.66;;;10.77;100.00
54172;BME280;40076;52.354;4.970;2022-11-11T09:45:49;102974.94;;;10.80;100.00
54172;BME280;40076;52.354;4.970;2022-11-11T09:51:18;102971.19;;;10.81;100.00
54172;BME280;40076;52.354;4.970;2022-11-11T09:53:47;102983.31;;;10.84;100.00
54172;BME280;40076;52.354;4.970;2022-11-11T09:56:17;102982.81;;;10.82;100.00
54172;BME280;40076;52.354;4.970;2022-11-11T09:58:47;102972.00;;;10.82;100.00
54172;BME280;40076;52.354;4.970;2022-11-11T10:01:22;102969.00;;;10.83;100.00
54172;BME280;40076;52.354;4.970;2022-11-11T10:03:58;102976.84;;;10.85;100.00
54172;BME280;40076;52.354;4.970;2022-11-11T10:06:30;102980.09;;;10.87;100.00
54172;BME280;40076;52.354;4.970;2022-11-11T10:09:07;102983.88;;;10.91;100.00
54172;BME280;40076;52.354;4.970;2022-11-11T10:14:03;102990.91;;;10.92;100.00
54172;BME280;40076;52.354;4.970;2022-11-11T10:16:35;102986.88;;;10.95;100.00
54172;BME280;40076;52.354;4.970;2022-11-11T10:19:28;102994.72;;;10.96;100.00
54172;BME280;40076;52.354;4.970;2022-11-11T10:22:08;103001.75;;;10.97;100.00
54172;BME280;40076;52.354;4.970;2022-11-11T10:24:41;102992.56;;;10.98;100.00
54172;BME280;40076;52.354;4.970;2022-11-11T10:27:15;102986.88;;;11.00;100.00
54172;BME280;40076;52.354;4.970;2022-11-11T10:29:42;102995.53;;;11.02;100.00
54172;BME280;40076;52.354;4.970;2022-11-11T10:34:37;102993.38;;;11.04;100.00
54172;BME280;40076;52.354;4.970;2022-11-11T10:37:15;102994.47;;;11.03;100.00
54172;BME280;40076;52.354;4.970;2022-11-11T10:42:19;102985.81;;;11.06;100.00
54172;BME280;40076;52.354;4.970;2022-11-11T10:44:44;102979.28;;;11.07;100.00
54172;BME280;40076;52.354;4.970;2022-11-11T10:47:12;102989.59;;;11.10;100.00
54172;BME280;40076;52.354;4.970;2022-11-11T10:49:47;102986.88;;;11.10;100.00
54172;BME280;40076;52.354;4.970;2022-11-11T10:52:22;102985.25;;;11.09;100.00
54172;BME280;40076;52.354;4.970;2022-11-11T10:54:54;102982.03;;;11.12;100.00
54172;BME280;40076;52.354;4.970;2022-11-11T10:57:43;102983.34;;;11.14;100.00
54172;BME280;40076;52.354;4.970;2022-11-11T11:00:13;102993.09;;;11.15;100.00
54172;BME280;40076;52.354;4.970;2022-11-11T11:05:46;102990.66;;;11.14;100.00
54172;BME280;40076;52.354;4.970;2022-11-11T11:08:20;102990.13;;;11.17;100.00
54172;BME280;40076;52.354;4.970;2022-11-11T11:10:51;102978.50;;;11.16;100.00
54172;BME280;40076;52.354;4.970;2022-11-11T11:13:25;102982.00;;;11.17;100.00
54172;BME280;40076;52.354;4.970;2022-11-11T11:15:57;102986.09;;;11.19;100.00
54172;BME280;40076;52.354;4.970;2022-11-11T11:18:24;102983.38;;;11.19;100.00
54172;BME280;40076;52.354;4.970;2022-11-11T11:21:05;102979.31;;;11.22;100.00
54172;BME280;40076;52.354;4.970;2022-11-11T11:23:35;102978.22;;;11.23;100.00
54172;BME280;40076;52.354;4.970;2022-11-11T11:26:01;102985.81;;;11.26;100.00
54172;BME280;40076;52.354;4.970;2022-11-11T11:28:30;102978.25;;;11.28;100.00
54172;BME280;40076;52.354;4.970;2022-11-11T11:33:25;102977.69;;;11.31;100.00
54172;BME280;40076;52.354;4.970;2022-11-11T11:35:50;102980.13;;;11.33;100.00
54172;BME280;40076;52.354;4.970;2022-11-11T11:38:15;102980.66;;;11.35;100.00
54172;BME280;40076;52.354;4.970;2022-11-11T11:40:48;102984.72;;;11.37;100.00
54172;BME280;40076;52.354;4.970;2022-11-11T11:43:35;102977.41;;;11.38;100.00
54172;BME280;40076;52.354;4.970;2022-11-11T11:46:03;102986.88;;;11.40;100.00
54172;BME280;40076;52.354;4.970;2022-11-11T11:48:48;102985.81;;;11.41;100.00
54172;BME280;40076;52.354;4.970;2022-11-11T11:51:39;102982.56;;;11.39;100.00
54172;BME280;40076;52.354;4.970;2022-11-11T11:54:29;102992.31;;;11.40;100.00
54172;BME280;40076;52.354;4.970;2022-11-11T11:57:03;102987.97;;;11.39;100.00
54172;BME280;40076;52.354;4.970;2022-11-11T12:00:37;102987.16;;;11.44;100.00
54172;BME280;40076;52.354;4.970;2022-11-11T12:05:25;102980.94;;;11.43;100.00
54172;BME280;40076;52.354;4.970;2022-11-11T12:15:40;102973.34;;;11.45;100.00
54172;BME280;40076;52.354;4.970;2022-11-11T12:18:21;102973.88;;;11.47;100.00
54172;BME280;40076;52.354;4.970;2022-11-11T12:40:14;102969.28;;;11.48;100.00
54172;BME280;40076;52.354;4.970;2022-11-11T12:45:42;102978.47;;;11.52;100.00
54172;BME280;40076;52.354;4.970;2022-11-11T12:53:42;102972.00;;;11.48;100.00
54172;BME280;40076;52.354;4.970;2022-11-11T12:59:01;102975.25;;;11.50;100.00
54172;BME280;40076;52.354;4.970;2022-11-11T13:10:26;102974.41;;;11.59;100.00
54172;BME280;40076;52.354;4.970;2022-11-11T13:15:57;102967.09;;;11.65;100.00
54172;BME280;40076;52.354;4.970;2022-11-11T13:21:10;102960.84;;;11.70;100.00
54172;BME280;40076;52.354;4.970;2022-11-11T13:23:40;102964.66;;;11.74;100.00
54172;BME280;40076;52.354;4.970;2022-11-11T13:26:24;102957.06;;;11.76;100.00
54172;BME280;40076;52.354;4.970;2022-11-11T13:29:05;102964.09;;;11.77;100.00
54172;BME280;40076;52.354;4.970;2022-11-11T13:31:39;102968.72;;;11.81;100.00
54172;BME280;40076;52.354;4.970;2022-11-11T13:34:09;102966.53;;;11.83;100.00
54172;BME280;40076;52.354;4.970;2022-11-11T13:36:48;102968.69;;;11.86;100.00
54172;BME280;40076;52.354;4.970;2022-11-11T13:39:45;102972.47;;;11.90;100.00
54172;BME280;40076;52.354;4.970;2022-11-11T13:42:17;102969.22;;;11.93;100.00
54172;BME280;40076;52.354;4.970;2022-11-11T13:45:01;102970.31;;;11.97;100.00
54172;BME280;40076;52.354;4.970;2022-11-11T13:47:39;102966.78;;;11.97;100.00
54172;BME280;40076;52.354;4.970;2022-11-11T13:50:25;102966.22;;;12.00;100.00
54172;BME280;40076;52.354;4.970;2022-11-11T13:52:58;102970.28;;;12.03;100.00
54172;BME280;40076;52.354;4.970;2022-11-11T13:55:30;102959.69;;;12.06;100.00
54172;BME280;40076;52.354;4.970;2022-11-11T13:57:56;102965.91;;;12.07;100.00
54172;BME280;40076;52.354;4.970;2022-11-11T14:00:25;102966.44;;;12.09;100.00
54172;BME280;40076;52.354;4.970;2022-11-11T14:05:41;102956.16;;;12.11;100.00
54172;BME280;40076;52.354;4.970;2022-11-11T14:08:06;102958.59;;;12.12;100.00
54172;BME280;40076;52.354;4.970;2022-11-11T14:15:46;102965.88;;;12.17;100.00
54172;BME280;40076;52.354;4.970;2022-11-11T14:20:45;102963.72;;;12.19;100.00
54172;BME280;40076;52.354;4.970;2022-11-11T14:25:46;102960.44;;;12.22;100.00
54172;BME280;40076;52.354;4.970;2022-11-11T14:28:28;102966.13;;;12.25;100.00
54172;BME280;40076;52.354;4.970;2022-11-11T14:36:49;102965.28;;;12.30;100.00
54172;BME280;40076;52.354;4.970;2022-11-11T14:41:47;102968.25;;;12.33;100.00
54172;BME280;40076;52.354;4.970;2022-11-11T14:57:29;102970.94;;;12.38;100.00
54172;BME280;40076;52.354;4.970;2022-11-11T14:59:57;102966.03;;;12.41;100.00
54172;BME280;40076;52.354;4.970;2022-11-11T15:02:33;102969.28;;;12.43;100.00
54172;BME280;40076;52.354;4.970;2022-11-11T15:05:01;102975.22;;;12.45;100.00
54172;BME280;40076;52.354;4.970;2022-11-11T15:07:36;102977.94;;;12.45;100.00